Time;durP1;ratioP1;P1;durP2;ratioP2;P2;SDS_P1;SDS_P2;PMS_P1;PMS_P2;Temp;Humidity;BMP_temperature;BMP_pressure;BME280_temperature;BME280_humidity;BME280_pressure;Samples;Min_cycle;Max_cycle;Signal;HPM_P1;HPM_P2
2023/06/01 00:01:04;;;;;;;11.10;6.05;;;11.40;99.90;;;;;;5111023;28;20468;-61
2023/06/01 00:03:30;;;;;;;19.65;6.63;;;11.40;99.90;;;;;;5112718;28;20438;-61
2023/06/01 00:05:56;;;;;;;12.30;5.70;;;11.40;99.90;;;;;;5111238;28;20418;-61
2023/06/01 00:08:22;;;;;;;8.70;5.45;;;11.40;99.90;;;;;;5110677;28;20048;-61
2023/06/01 00:10:48;;;;;;;13.73;5.65;;;11.40;99.90;;;;;;5112388;28;20039;-61
2023/06/01 00:13:15;;;;;;;17.45;5.70;;;11.40;99.90;;;;;;5112423;28;20047;-61
2023/06/01 00:15:40;;;;;;;15.23;6.82;;;11.30;99.90;;;;;;5093771;28;20463;-61
2023/06/01 00:18:08;;;;;;;14.13;6.68;;;11.40;99.90;;;;;;5112848;28;20070;-61
2023/06/01 00:20:34;;;;;;;11.27;6.03;;;11.30;99.90;;;;;;5111343;28;20075;-61
2023/06/01 00:23:02;;;;;;;14.45;6.40;;;11.40;99.90;;;;;;5111290;28;20043;-60
2023/06/01 00:25:28;;;;;;;11.80;5.80;;;11.40;99.90;;;;;;5112227;28;20039;-61
2023/06/01 00:27:53;;;;;;;14.23;4.55;;;11.30;99.90;;;;;;5094102;28;20043;-61
2023/06/01 00:30:19;;;;;;;12.13;4.75;;;11.40;99.90;;;;;;5111618;28;20054;-61
2023/06/01 00:32:45;;;;;;;12.30;4.63;;;11.30;99.90;;;;;;5112471;28;20081;-61
2023/06/01 00:35:10;;;;;;;12.82;5.28;;;11.30;99.90;;;;;;5111598;28;20043;-61
2023/06/01 00:37:36;;;;;;;11.85;6.20;;;11.30;99.90;;;;;;5112586;28;20039;-62
2023/06/01 00:40:02;;;;;;;14.15;5.05;;;11.30;99.90;;;;;;5114435;28;20047;-62
2023/06/01 00:42:27;;;;;;;17.50;6.50;;;11.30;99.90;;;;;;5114604;28;20099;-62
2023/06/01 00:44:53;;;;;;;14.82;5.63;;;11.30;99.90;;;;;;5114945;28;20043;-62
2023/06/01 00:47:19;;;;;;;13.05;5.78;;;11.30;99.90;;;;;;5097750;28;20040;-62
2023/06/01 00:49:46;;;;;;;12.95;5.60;;;11.30;99.90;;;;;;5114301;28;20044;-62
2023/06/01 00:52:13;;;;;;;15.50;6.70;;;11.30;99.90;;;;;;5114476;28;20119;-62
2023/06/01 00:54:39;;;;;;;15.63;6.88;;;11.30;99.90;;;;;;5097692;28;20560;-62
2023/06/01 00:57:06;;;;;;;14.48;6.80;;;11.30;99.90;;;;;;5114422;28;20369;-62
2023/06/01 00:59:34;;;;;;;20.98;7.63;;;11.40;99.90;;;;;;5116279;28;20039;-62
2023/06/01 01:02:00;;;;;;;14.18;6.15;;;11.30;99.90;;;;;;5114751;28;20484;-62
2023/06/01 01:04:25;;;;;;;17.77;7.15;;;11.40;99.90;;;;;;5113940;28;20088;-62
2023/06/01 01:07:20;;;;;;;14.40;6.20;;;11.30;99.90;;;;;;5114643;28;20035;-62
2023/06/01 01:10:03;;;;;;;10.90;5.40;;;11.30;99.90;;;;;;5114598;28;20097;-62
2023/06/01 01:12:44;;;;;;;17.70;7.18;;;11.30;99.90;;;;;;5114074;28;20048;-62
2023/06/01 01:15:13;;;;;;;14.15;7.00;;;11.30;99.90;;;;;;5097798;28;20404;-62
2023/06/01 01:17:45;;;;;;;15.40;6.30;;;11.30;99.90;;;;;;5113663;28;20039;-62
2023/06/01 01:20:35;;;;;;;13.82;6.10;;;11.40;99.90;;;;;;5101811;28;20094;-62
2023/06/01 01:23:13;;;;;;;16.48;7.30;;;11.40;99.90;;;;;;5095281;28;20051;-62
2023/06/01 01:26:09;;;;;;;12.65;5.93;;;11.30;99.90;;;;;;5094366;28;20473;-62
2023/06/01 01:28:48;;;;;;;14.88;6.30;;;11.40;99.90;;;;;;5094240;28;20476;-62
2023/06/01 01:31:18;;;;;;;16.38;6.72;;;11.40;99.90;;;;;;5095034;28;20085;-62
2023/06/01 01:33:46;;;;;;;16.50;7.43;;;11.40;99.90;;;;;;5093066;28;20048;-62
2023/06/01 01:36:12;;;;;;;15.45;6.82;;;11.40;99.90;;;;;;5094734;28;20513;-62
2023/06/01 01:38:39;;;;;;;13.82;6.65;;;11.40;99.90;;;;;;5093000;28;20378;-62
2023/06/01 01:41:05;;;;;;;11.02;5.18;;;11.40;99.90;;;;;;5099568;28;20499;-62
2023/06/01 01:43:31;;;;;;;12.20;5.38;;;11.30;99.90;;;;;;5113775;28;20110;-62
2023/06/01 01:46:27;;;;;;;13.13;5.47;;;11.30;99.90;;;;;;5113017;28;20051;-62
2023/06/01 01:48:52;;;;;;;13.25;5.18;;;11.30;99.90;;;;;;5114868;28;20040;-62
2023/06/01 01:51:32;;;;;;;11.68;4.28;;;11.20;99.90;;;;;;5113678;28;20445;-62
2023/06/01 01:54:00;;;;;;;12.98;5.00;;;11.30;99.90;;;;;;5114325;28;20043;-62
2023/06/01 01:56:27;;;;;;;10.75;4.68;;;11.30;99.90;;;;;;5115048;28;20040;-62
2023/06/01 01:58:55;;;;;;;8.75;5.03;;;11.30;99.90;;;;;;5114932;28;20499;-61
2023/06/01 02:01:21;;;;;;;12.55;6.05;;;11.20;99.90;;;;;;5112650;28;20043;-61
2023/06/01 02:03:46;;;;;;;13.38;5.88;;;11.20;99.90;;;;;;5113562;28;20049;-61
2023/06/01 02:06:12;;;;;;;10.93;5.18;;;11.20;99.90;;;;;;5114851;28;20036;-61
2023/06/01 02:08:38;;;;;;;10.10;5.65;;;11.20;99.90;;;;;;5112648;28;20039;-61
2023/06/01 02:11:04;;;;;;;8.52;4.63;;;11.20;99.90;;;;;;5115051;28;20039;-61
2023/06/01 02:13:30;;;;;;;11.48;4.30;;;11.20;99.90;;;;;;5096439;28;20122;-61
2023/06/01 02:15:55;;;;;;;12.05;4.82;;;11.20;99.90;;;;;;5112270;28;20043;-60
2023/06/01 02:18:21;;;;;;;8.20;4.35;;;11.20;99.90;;;;;;5113240;28;20051;-61
2023/06/01 02:20:47;;;;;;;11.85;4.78;;;11.20;99.90;;;;;;5112293;28;20501;-61
2023/06/01 02:23:12;;;;;;;12.95;5.60;;;11.30;99.90;;;;;;5113107;28;20476;-61
2023/06/01 02:25:38;;;;;;;11.30;4.20;;;11.20;99.90;;;;;;5113029;28;20039;-61
2023/06/01 02:28:04;;;;;;;8.18;4.60;;;11.30;99.90;;;;;;5112648;28;20138;-61
2023/06/01 02:30:30;;;;;;;11.13;4.10;;;11.20;99.90;;;;;;5113037;28;20474;-61
2023/06/01 02:32:55;;;;;;;8.20;4.47;;;11.20;99.90;;;;;;5114459;28;20107;-60
2023/06/01 02:35:21;;;;;;;11.38;4.13;;;11.20;99.90;;;;;;5113478;28;20031;-60
2023/06/01 02:37:47;;;;;;;7.85;3.40;;;11.30;99.90;;;;;;5112559;28;20431;-61
2023/06/01 02:40:12;;;;;;;11.68;3.97;;;11.20;99.90;;;;;;5114120;28;20032;-61
2023/06/01 02:42:38;;;;;;;8.25;3.90;;;11.20;99.90;;;;;;5112949;28;20488;-61
2023/06/01 02:45:08;;;;;;;10.98;4.10;;;11.30;99.90;;;;;;5112918;28;20096;-60
2023/06/01 02:47:34;;;;;;;9.05;4.15;;;11.30;99.90;;;;;;5113550;28;20114;-61
2023/06/01 02:50:00;;;;;;;11.70;4.43;;;11.30;99.90;;;;;;5112963;28;20480;-61
2023/06/01 02:52:25;;;;;;;8.75;4.18;;;11.30;99.90;;;;;;5114093;28;20032;-60
2023/06/01 02:54:51;;;;;;;9.27;4.30;;;11.30;99.90;;;;;;5112676;28;20035;-61
2023/06/01 02:57:17;;;;;;;7.82;4.07;;;11.30;99.90;;;;;;5111722;28;20408;-60
2023/06/01 02:59:42;;;;;;;9.07;4.40;;;11.30;99.90;;;;;;5113622;28;20043;-60
2023/06/01 03:02:08;;;;;;;9.77;3.70;;;11.30;99.90;;;;;;5112028;28;20043;-61
2023/06/01 03:04:33;;;;;;;7.35;3.45;;;11.40;99.90;;;;;;5113294;28;20039;-61
2023/06/01 03:07:01;;;;;;;9.85;3.92;;;11.30;99.90;;;;;;5112395;28;20120;-61
2023/06/01 03:09:26;;;;;;;9.55;3.45;;;11.30;99.90;;;;;;5113603;28;20043;-60
2023/06/01 03:11:52;;;;;;;9.70;4.28;;;11.40;99.90;;;;;;5111296;28;20096;-61
2023/06/01 03:14:18;;;;;;;9.35;3.60;;;11.30;99.90;;;;;;5113204;28;20043;-61
2023/06/01 03:16:43;;;;;;;8.57;3.85;;;11.30;99.90;;;;;;5113577;28;20039;-60
2023/06/01 03:19:09;;;;;;;9.77;3.90;;;11.40;99.90;;;;;;5112660;28;20043;-61
2023/06/01 03:21:35;;;;;;;9.77;4.00;;;11.30;99.90;;;;;;5112251;28;20145;-61
2023/06/01 03:24:00;;;;;;;8.93;4.35;;;11.30;99.90;;;;;;5112495;28;20036;-60
2023/06/01 03:26:26;;;;;;;10.82;4.53;;;11.30;99.90;;;;;;5112231;28;20047;-61
2023/06/01 03:28:52;;;;;;;9.70;4.57;;;11.30;99.90;;;;;;5111941;28;20040;-61
2023/06/01 03:31:18;;;;;;;9.65;3.90;;;11.30;99.90;;;;;;5111174;28;20086;-60
2023/06/01 03:33:44;;;;;;;9.63;3.38;;;11.30;99.90;;;;;;5113229;28;20043;-61
2023/06/01 03:36:10;;;;;;;7.38;3.63;;;11.30;99.90;;;;;;5112051;28;20404;-60
2023/06/01 03:38:36;;;;;;;10.70;3.08;;;11.30;99.90;;;;;;5111481;28;20054;-60
2023/06/01 03:41:01;;;;;;;8.27;3.50;;;11.30;99.90;;;;;;5112835;28;20496;-61
2023/06/01 03:43:27;;;;;;;10.25;4.82;;;11.40;99.90;;;;;;5111632;28;20051;-61
2023/06/01 03:45:53;;;;;;;8.80;3.83;;;11.30;99.90;;;;;;5111997;27;20044;-61
2023/06/01 03:48:18;;;;;;;8.40;4.05;;;11.40;99.90;;;;;;5112869;28;20047;-60
2023/06/01 03:50:45;;;;;;;10.35;4.10;;;11.40;99.90;;;;;;5112741;28;20043;-61
2023/06/01 03:53:12;;;;;;;7.35;3.72;;;11.40;99.90;;;;;;5110678;28;20047;-61
2023/06/01 03:55:38;;;;;;;8.45;4.72;;;11.40;99.90;;;;;;5111506;28;20058;-61
2023/06/01 03:58:04;;;;;;;9.07;3.75;;;11.40;99.90;;;;;;5111740;28;20043;-61
2023/06/01 04:00:30;;;;;;;10.63;4.95;;;11.40;99.90;;;;;;5110715;28;20039;-61
2023/06/01 04:03:02;;;;;;;9.77;3.85;;;11.40;99.90;;;;;;5112786;28;20038;-61
2023/06/01 04:05:27;;;;;;;10.55;4.18;;;11.50;99.90;;;;;;5111499;28;20047;-61
2023/06/01 04:07:54;;;;;;;7.75;3.55;;;11.40;99.90;;;;;;5093180;28;20040;-61
2023/06/01 04:10:21;;;;;;;10.45;3.80;;;11.40;99.90;;;;;;5112557;28;20055;-61
2023/06/01 04:12:51;;;;;;;9.32;3.90;;;11.40;99.90;;;;;;5111791;28;20043;-61
2023/06/01 04:15:18;;;;;;;9.68;4.45;;;11.40;99.90;;;;;;5110489;28;20118;-61
2023/06/01 04:17:44;;;;;;;7.22;3.33;;;11.40;99.90;;;;;;5112407;28;20047;-61
2023/06/01 04:20:13;;;;;;;11.10;3.40;;;11.40;99.90;;;;;;5111014;28;20059;-61
2023/06/01 04:22:40;;;;;;;9.40;3.50;;;11.40;99.90;;;;;;5112418;28;20088;-61
2023/06/01 04:25:08;;;;;;;7.60;3.47;;;11.40;99.90;;;;;;5111403;28;20043;-61
2023/06/01 04:27:37;;;;;;;7.55;3.35;;;11.40;99.90;;;;;;5111806;28;20054;-61
2023/06/01 04:30:09;;;;;;;7.07;3.33;;;11.40;99.90;;;;;;5112638;28;20093;-61
2023/06/01 04:32:37;;;;;;;8.02;3.72;;;11.40;99.90;;;;;;5112713;28;20044;-60
2023/06/01 04:35:06;;;;;;;9.23;3.58;;;11.40;99.90;;;;;;5111453;28;20481;-60
2023/06/01 04:37:40;;;;;;;7.65;3.80;;;11.50;99.90;;;;;;5111053;28;20046;-61
2023/06/01 04:40:10;;;;;;;7.78;4.13;;;11.50;99.90;;;;;;5111408;28;20031;-61
2023/06/01 04:42:38;;;;;;;9.02;4.25;;;11.50;99.90;;;;;;5110438;28;20044;-61
2023/06/01 04:45:10;;;;;;;11.77;4.20;;;11.50;99.90;;;;;;5112324;28;20044;-60
2023/06/01 04:47:39;;;;;;;7.10;3.78;;;11.50;99.90;;;;;;5112475;28;20067;-61
2023/06/01 04:50:08;;;;;;;9.80;4.50;;;11.50;99.90;;;;;;5093347;28;20031;-61
2023/06/01 04:52:34;;;;;;;8.88;3.88;;;11.50;99.90;;;;;;5111404;28;20388;-61
2023/06/01 04:55:00;;;;;;;12.52;3.50;;;11.60;99.90;;;;;;5112289;28;20115;-61
2023/06/01 04:57:26;;;;;;;8.13;3.75;;;11.60;99.90;;;;;;5109988;28;20118;-61
2023/06/01 04:59:53;;;;;;;7.63;3.53;;;11.60;99.90;;;;;;5110877;28;20095;-60
2023/06/01 05:02:19;;;;;;;11.40;3.90;;;11.60;99.90;;;;;;5110664;28;20051;-61
2023/06/01 05:04:44;;;;;;;12.40;3.40;;;11.60;99.90;;;;;;5110711;28;20032;-61
2023/06/01 05:07:10;;;;;;;8.00;3.60;;;11.60;99.90;;;;;;5112183;28;20524;-61
2023/06/01 05:09:36;;;;;;;7.75;3.78;;;11.60;99.90;;;;;;5111620;28;20058;-61
2023/06/01 05:12:01;;;;;;;9.95;4.38;;;11.60;99.90;;;;;;5110638;28;20476;-61
2023/06/01 05:14:27;;;;;;;9.73;4.93;;;11.60;99.90;;;;;;5112353;28;20043;-60
2023/06/01 05:16:53;;;;;;;12.00;5.13;;;11.70;99.90;;;;;;5110085;28;20232;-61
2023/06/01 05:19:18;;;;;;;13.35;5.75;;;11.70;99.90;;;;;;5110644;28;20461;-60
2023/06/01 05:21:44;;;;;;;9.70;4.88;;;11.70;99.90;;;;;;5110327;28;20127;-61
2023/06/01 05:24:10;;;;;;;10.60;4.90;;;11.70;99.90;;;;;;5111332;28;20114;-61
2023/06/01 05:26:35;;;;;;;15.77;4.68;;;11.70;99.90;;;;;;5114690;28;20043;-61
2023/06/01 05:29:01;;;;;;;11.23;4.47;;;11.70;99.90;;;;;;5097194;28;20035;-61
2023/06/01 05:31:27;;;;;;;11.93;4.18;;;11.70;99.90;;;;;;5107564;28;20040;-61
2023/06/01 05:33:52;;;;;;;11.75;4.13;;;11.70;99.90;;;;;;5094790;28;20032;-61
2023/06/01 05:36:18;;;;;;;10.00;4.18;;;11.80;99.90;;;;;;5093817;28;20109;-61
2023/06/01 05:38:43;;;;;;;12.25;3.78;;;11.80;99.90;;;;;;5094294;28;20439;-61
2023/06/01 05:41:09;;;;;;;13.68;3.72;;;11.80;99.90;;;;;;5107095;28;20392;-61
2023/06/01 05:43:36;;;;;;;8.88;4.00;;;11.80;99.90;;;;;;5115380;27;20460;-61
2023/06/01 05:46:02;;;;;;;10.52;3.80;;;11.80;99.90;;;;;;5096005;28;20047;-61
2023/06/01 05:48:28;;;;;;;9.77;3.67;;;11.80;99.90;;;;;;5115061;28;20110;-61
2023/06/01 05:50:53;;;;;;;7.78;3.00;;;11.90;99.90;;;;;;5115186;28;20446;-61
2023/06/01 05:53:19;;;;;;;9.05;4.18;;;11.90;99.90;;;;;;5113266;28;20515;-61
2023/06/01 05:55:44;;;;;;;7.25;3.10;;;11.90;99.90;;;;;;5114124;28;20468;-61
2023/06/01 05:58:10;;;;;;;9.35;3.33;;;11.90;99.90;;;;;;5114989;28;20480;-61
2023/06/01 06:00:36;;;;;;;7.82;3.38;;;11.90;99.90;;;;;;5098801;28;20114;-60
2023/06/01 06:03:04;;;;;;;10.70;3.80;;;11.80;99.90;;;;;;5095570;28;20051;-61
2023/06/01 06:05:29;;;;;;;7.95;3.17;;;11.90;99.90;;;;;;5102759;28;20392;-61
2023/06/01 06:07:55;;;;;;;7.47;3.15;;;11.90;99.90;;;;;;5106042;28;20036;-61
2023/06/01 06:10:21;;;;;;;9.55;3.40;;;11.90;99.90;;;;;;5099253;28;20035;-61
2023/06/01 06:12:47;;;;;;;9.90;3.00;;;11.90;99.90;;;;;;5081472;28;20397;-61
2023/06/01 06:15:12;;;;;;;8.70;2.85;;;11.90;99.90;;;;;;5112662;27;20494;-61
2023/06/01 06:17:38;;;;;;;9.57;3.45;;;11.90;99.90;;;;;;5111243;28;20050;-61
2023/06/01 06:20:07;;;;;;;5.50;2.33;;;11.90;99.90;;;;;;5106517;28;20149;-61
2023/06/01 06:22:33;;;;;;;8.27;3.25;;;11.90;99.90;;;;;;5091503;28;20404;-61
2023/06/01 06:24:58;;;;;;;6.60;2.67;;;11.90;99.90;;;;;;5089926;28;20046;-60
2023/06/01 06:27:24;;;;;;;8.65;3.00;;;11.90;99.90;;;;;;5103835;28;20048;-61
2023/06/01 06:29:50;;;;;;;9.48;2.63;;;11.90;99.90;;;;;;5096300;28;20054;-61
2023/06/01 06:32:15;;;;;;;8.50;2.97;;;11.90;99.90;;;;;;5109870;28;20034;-61
2023/06/01 06:34:41;;;;;;;6.85;2.70;;;12.00;99.90;;;;;;5109383;28;20048;-61
2023/06/01 06:37:07;;;;;;;6.68;3.08;;;12.00;99.90;;;;;;5086876;28;20140;-61
2023/06/01 06:39:33;;;;;;;8.40;3.33;;;12.10;99.90;;;;;;5122693;27;20036;-63
2023/06/01 06:42:02;;;;;;;8.98;3.33;;;12.10;99.90;;;;;;5106741;28;20051;-65
2023/06/01 06:48:15;;;;;;;7.95;3.17;;;12.20;99.90;;;;;;5091871;28;20040;-63
2023/06/01 06:50:44;;;;;;;10.55;3.55;;;12.20;99.90;;;;;;5094277;28;20081;-62
2023/06/01 06:53:09;;;;;;;10.50;2.90;;;12.10;99.90;;;;;;5100717;28;20112;-66
2023/06/01 06:55:35;;;;;;;12.25;3.05;;;12.20;99.90;;;;;;5082472;28;20032;-63
2023/06/01 06:58:01;;;;;;;6.90;2.70;;;12.10;99.90;;;;;;5105776;28;20043;-63
2023/06/01 07:00:27;;;;;;;6.65;2.90;;;12.10;99.90;;;;;;5106206;28;20118;-64
2023/06/01 07:02:52;;;;;;;8.90;2.83;;;12.20;99.90;;;;;;5094375;28;20481;-62
2023/06/01 07:05:18;;;;;;;5.75;1.95;;;12.20;99.90;;;;;;5106977;28;20376;-61
2023/06/01 07:07:44;;;;;;;6.18;2.00;;;12.20;99.90;;;;;;5093195;28;20094;-61
2023/06/01 07:10:10;;;;;;;5.32;1.75;;;12.20;99.90;;;;;;5098352;28;20028;-61
2023/06/01 07:12:36;;;;;;;7.93;2.28;;;12.20;99.90;;;;;;5113814;27;20040;-62
2023/06/01 07:15:02;;;;;;;6.45;1.90;;;12.20;99.90;;;;;;5122821;27;20032;-62
2023/06/01 07:17:27;;;;;;;8.90;2.13;;;12.30;99.90;;;;;;5117719;27;20052;-62
2023/06/01 07:19:53;;;;;;;5.10;1.90;;;12.30;99.90;;;;;;5112188;27;20096;-62
2023/06/01 07:22:21;;;;;;;7.07;1.98;;;12.30;99.90;;;;;;5104005;28;20040;-61
2023/06/01 07:24:47;;;;;;;3.95;1.50;;;12.30;99.90;;;;;;5090355;28;20040;-62
2023/06/01 07:27:13;;;;;;;4.25;1.52;;;12.30;99.90;;;;;;5095317;28;20042;-61
2023/06/01 07:29:41;;;;;;;3.95;1.58;;;12.40;99.90;;;;;;5106709;27;20075;-61
2023/06/01 07:32:06;;;;;;;5.90;1.30;;;12.40;99.90;;;;;;5089934;28;20080;-61
2023/06/01 07:34:33;;;;;;;4.60;1.40;;;12.30;99.90;;;;;;5083603;28;20440;-62
2023/06/01 07:36:59;;;;;;;5.22;1.67;;;12.40;99.90;;;;;;5108855;28;20040;-61
2023/06/01 07:39:25;;;;;;;4.95;1.50;;;12.40;99.90;;;;;;5107178;28;20074;-61
2023/06/01 07:41:53;;;;;;;5.68;1.52;;;12.40;99.90;;;;;;5092965;28;20044;-61
2023/06/01 07:44:20;;;;;;;4.32;1.63;;;12.30;99.90;;;;;;5083260;28;20056;-60
2023/06/01 07:46:46;;;;;;;4.63;1.55;;;12.30;99.90;;;;;;5071918;28;20461;-60
2023/06/01 07:49:13;;;;;;;5.78;1.73;;;12.20;99.90;;;;;;5095285;28;20484;-60
2023/06/01 07:51:41;;;;;;;5.43;1.48;;;12.20;99.90;;;;;;5103578;28;20507;-60
2023/06/01 07:54:07;;;;;;;4.70;1.38;;;12.30;99.90;;;;;;5104544;28;20131;-60
2023/06/01 07:56:34;;;;;;;4.10;1.60;;;12.30;99.90;;;;;;5100900;28;20105;-59
2023/06/01 07:59:00;;;;;;;8.40;2.58;;;12.40;99.90;;;;;;5092586;28;20397;-60
2023/06/01 08:01:26;;;;;;;5.45;1.83;;;12.40;99.90;;;;;;5103880;28;20054;-60
2023/06/01 08:03:52;;;;;;;13.07;3.97;;;12.40;99.90;;;;;;5091038;28;20086;-60
2023/06/01 08:06:18;;;;;;;7.82;2.92;;;12.40;99.90;;;;;;5106185;28;20044;-60
2023/06/01 08:08:45;;;;;;;11.63;3.78;;;12.40;99.90;;;;;;5110195;28;20036;-60
2023/06/01 08:11:11;;;;;;;8.27;3.35;;;12.40;99.90;;;;;;5088653;28;20473;-60
2023/06/01 08:13:37;;;;;;;8.00;3.80;;;12.30;99.90;;;;;;5108126;28;20044;-60
2023/06/01 08:16:03;;;;;;;10.15;4.30;;;12.30;99.90;;;;;;5094277;28;20570;-60
2023/06/01 08:18:30;;;;;;;13.77;3.88;;;12.20;99.90;;;;;;5106826;28;20136;-62
2023/06/01 08:20:56;;;;;;;12.68;3.97;;;12.20;99.90;;;;;;5107623;28;20047;-61
2023/06/01 08:23:24;;;;;;;11.70;4.03;;;12.30;99.90;;;;;;5092075;28;20040;-61
2023/06/01 08:25:50;;;;;;;7.88;3.13;;;12.20;99.90;;;;;;5087949;28;20036;-61
2023/06/01 08:28:16;;;;;;;7.05;3.58;;;12.20;99.90;;;;;;5100943;28;20062;-62
2023/06/01 08:30:41;;;;;;;9.15;3.55;;;12.20;99.90;;;;;;5095949;28;20123;-61
2023/06/01 08:33:07;;;;;;;9.07;3.38;;;12.30;99.90;;;;;;5109376;28;20039;-60
2023/06/01 08:35:34;;;;;;;8.82;3.45;;;12.30;99.90;;;;;;5106597;28;20046;-59
2023/06/01 08:38:03;;;;;;;7.50;3.20;;;12.30;99.90;;;;;;5108494;28;20112;-60
2023/06/01 08:40:31;;;;;;;10.20;2.92;;;12.40;99.90;;;;;;5106395;28;20753;-59
2023/06/01 08:43:16;;;;;;;11.27;3.90;;;12.30;99.90;;;;;;5109356;28;20551;-59
2023/06/01 08:45:44;;;;;;;9.88;3.63;;;12.40;99.90;;;;;;5109339;28;20446;-60
2023/06/01 08:48:17;;;;;;;9.82;3.47;;;12.40;99.90;;;;;;5106575;28;20680;-60
2023/06/01 08:50:48;;;;;;;9.52;3.17;;;12.40;99.90;;;;;;5108683;28;20079;-60
2023/06/01 08:53:18;;;;;;;8.70;3.58;;;12.50;99.90;;;;;;5107965;28;20511;-60
2023/06/01 08:55:45;;;;;;;13.07;3.58;;;12.50;99.90;;;;;;5089902;28;20043;-60
2023/06/01 08:58:13;;;;;;;10.93;3.35;;;12.60;99.90;;;;;;5107673;28;20055;-60
2023/06/01 09:00:40;;;;;;;9.38;3.28;;;12.60;99.90;;;;;;5091915;28;20138;-60
2023/06/01 09:03:06;;;;;;;18.55;3.83;;;12.60;99.90;;;;;;5102212;28;20039;-60
2023/06/01 09:05:32;;;;;;;13.60;3.28;;;12.60;99.90;;;;;;5111337;27;20040;-60
2023/06/01 09:07:57;;;;;;;8.75;2.90;;;12.70;99.90;;;;;;5099275;28;20032;-59
2023/06/01 09:10:27;;;;;;;9.48;3.40;;;12.70;99.90;;;;;;5101794;28;20043;-60
2023/06/01 09:12:54;;;;;;;7.57;2.97;;;12.80;99.90;;;;;;5102005;28;20397;-60
2023/06/01 09:15:23;;;;;;;7.13;3.10;;;12.80;99.90;;;;;;5111422;28;20043;-60
2023/06/01 09:17:50;;;;;;;8.40;3.03;;;12.80;99.90;;;;;;5112725;28;20452;-59
2023/06/01 09:20:27;;;;;;;9.05;2.90;;;12.90;99.90;;;;;;5115550;28;20079;-59
2023/06/01 09:22:54;;;;;;;9.93;3.40;;;13.00;99.90;;;;;;5096408;28;20123;-60
2023/06/01 09:25:31;;;;;;;10.57;3.22;;;13.00;99.90;;;;;;5115601;28;20044;-60
2023/06/01 09:27:58;;;;;;;9.00;2.55;;;13.00;99.90;;;;;;5114585;28;20044;-61
2023/06/01 09:30:36;;;;;;;10.82;3.63;;;13.00;99.90;;;;;;5113440;28;20035;-59
2023/06/01 09:33:14;;;;;;;8.40;3.13;;;13.10;99.90;;;;;;5114530;28;20047;-62
2023/06/01 09:35:44;;;;;;;10.43;2.72;;;13.00;99.90;;;;;;5115376;28;20039;-59
2023/06/01 09:38:11;;;;;;;8.57;3.60;;;12.90;99.90;;;;;;5113383;28;20043;-60
2023/06/01 09:40:38;;;;;;;6.38;2.63;;;12.90;99.90;;;;;;5097342;28;20039;-60
2023/06/01 09:43:21;;;;;;;10.07;2.88;;;12.90;99.90;;;;;;5114626;28;20507;-59
2023/06/01 09:46:08;;;;;;;10.23;2.78;;;13.00;99.90;;;;;;5105532;28;20087;-61
2023/06/01 09:48:33;;;;;;;11.75;4.55;;;12.90;99.90;;;;;;5095417;28;20050;-61
2023/06/01 09:50:59;;;;;;;11.32;3.72;;;12.90;99.90;;;;;;5092820;28;20441;-61
2023/06/01 09:53:25;;;;;;;9.88;3.10;;;12.90;99.90;;;;;;5093409;28;20043;-62
2023/06/01 09:55:59;;;;;;;8.52;2.63;;;12.90;99.90;;;;;;5093546;28;20503;-63
2023/06/01 09:58:25;;;;;;;9.38;3.10;;;12.90;99.90;;;;;;5092931;28;20047;-62
2023/06/01 10:00:51;;;;;;;7.85;2.88;;;13.00;99.90;;;;;;5094564;28;20111;-62
2023/06/01 10:03:19;;;;;;;12.73;3.78;;;13.00;99.90;;;;;;5093625;28;20044;-63
2023/06/01 10:05:46;;;;;;;9.57;2.83;;;13.10;99.90;;;;;;5104393;28;20082;-63
2023/06/01 10:08:13;;;;;;;8.90;2.58;;;13.10;99.90;;;;;;5094479;28;20044;-62
2023/06/01 10:10:41;;;;;;;9.73;3.25;;;13.20;99.90;;;;;;5093960;28;20048;-62
2023/06/01 10:13:07;;;;;;;12.55;2.78;;;13.20;99.90;;;;;;5092393;28;20511;-62
2023/06/01 10:15:33;;;;;;;6.32;2.90;;;13.30;99.90;;;;;;5093338;28;20040;-62
2023/06/01 10:18:00;;;;;;;10.55;3.13;;;13.20;99.90;;;;;;5093181;28;20043;-62
2023/06/01 10:20:26;;;;;;;11.20;2.70;;;13.30;99.90;;;;;;5092595;28;20516;-63
2023/06/01 10:22:52;;;;;;;7.25;2.63;;;13.20;99.90;;;;;;5093321;28;20036;-62
2023/06/01 10:25:23;;;;;;;9.55;3.08;;;13.30;99.90;;;;;;5093714;28;20110;-61
2023/06/01 10:28:00;;;;;;;8.18;2.70;;;13.30;99.90;;;;;;5093367;28;20036;-61
2023/06/01 10:30:26;;;;;;;8.00;2.75;;;13.40;99.90;;;;;;5106463;28;20048;-61
2023/06/01 10:32:54;;;;;;;8.50;2.78;;;13.40;99.90;;;;;;5113316;28;20040;-61
2023/06/01 10:35:25;;;;;;;6.75;3.30;;;13.40;99.90;;;;;;5102758;28;20146;-62
2023/06/01 10:38:07;;;;;;;9.95;3.00;;;13.50;99.90;;;;;;5094103;28;20036;-62
2023/06/01 10:40:43;;;;;;;10.07;3.03;;;13.50;99.90;;;;;;5107373;28;20372;-61
2023/06/01 10:43:40;;;;;;;10.38;3.05;;;13.50;99.90;;;;;;5114329;28;20047;-62
2023/06/01 10:46:37;;;;;;;7.13;2.38;;;13.60;99.90;;;;;;5098722;28;20408;-61
2023/06/01 10:49:04;;;;;;;9.57;2.75;;;13.60;99.90;;;;;;5109118;28;20044;-61
2023/06/01 10:51:30;;;;;;;6.03;2.50;;;13.60;99.90;;;;;;5091393;28;20515;-61
2023/06/01 10:54:29;;;;;;;7.07;2.30;;;13.60;99.90;;;;;;5090182;28;20040;-62
2023/06/01 10:57:26;;;;;;;7.28;3.33;;;13.50;99.90;;;;;;5091278;28;20707;-61
2023/06/01 11:00:14;;;;;;;7.70;2.72;;;13.50;99.90;;;;;;5091512;28;20066;-62
2023/06/01 11:02:54;;;;;;;11.10;3.30;;;13.50;99.90;;;;;;5090662;28;20048;-61
2023/06/01 11:05:51;;;;;;;8.85;2.90;;;13.50;99.90;;;;;;5090152;28;20052;-61
2023/06/01 11:08:17;;;;;;;8.27;3.30;;;13.50;99.90;;;;;;5094295;28;20066;-61
2023/06/01 11:10:56;;;;;;;8.20;3.10;;;13.50;99.90;;;;;;5100210;28;20063;-61
2023/06/01 11:13:35;;;;;;;6.22;2.10;;;13.50;99.90;;;;;;5090046;28;20047;-62
2023/06/01 11:16:07;;;;;;;8.32;2.65;;;13.50;99.90;;;;;;5088808;28;20047;-61
2023/06/01 11:19:17;;;;;;;7.20;2.50;;;13.40;99.90;;;;;;5086057;28;20707;-61
2023/06/01 11:21:46;;;;;;;5.97;2.25;;;13.50;99.90;;;;;;5030056;28;20131;-62
2023/06/01 11:24:15;;;;;;;6.82;2.75;;;13.60;99.90;;;;;;5079695;28;20420;-61
2023/06/01 11:26:44;;;;;;;5.53;2.33;;;13.70;99.90;;;;;;5101491;28;20087;-63
2023/06/01 11:29:17;;;;;;;6.78;2.75;;;13.80;99.90;;;;;;5089711;28;20044;-61
2023/06/01 11:31:45;;;;;;;8.77;2.38;;;13.80;99.90;;;;;;5089679;28;20404;-61
2023/06/01 11:34:12;;;;;;;7.13;3.20;;;13.80;99.90;;;;;;5122464;27;20100;-61
2023/06/01 11:36:43;;;;;;;7.85;3.00;;;13.80;99.90;;;;;;5101978;28;20122;-61
2023/06/01 11:39:20;;;;;;;9.60;3.15;;;13.70;99.90;;;;;;5088586;28;20572;-61
2023/06/01 11:41:49;;;;;;;12.43;3.00;;;13.70;99.90;;;;;;5122145;27;20047;-62
2023/06/01 11:44:15;;;;;;;10.15;3.10;;;13.60;99.90;;;;;;5124727;27;20048;-61
2023/06/01 11:46:55;;;;;;;10.40;3.03;;;13.60;99.90;;;;;;5109092;28;20492;-61
2023/06/01 11:49:22;;;;;;;7.60;3.38;;;13.60;99.90;;;;;;5109717;28;20117;-61
2023/06/01 11:51:48;;;;;;;9.40;3.45;;;13.60;99.90;;;;;;5107148;28;20057;-61
2023/06/01 11:54:14;;;;;;;9.93;3.35;;;13.50;99.90;;;;;;5108380;28;20046;-61
2023/06/01 11:56:41;;;;;;;8.82;3.88;;;13.50;99.90;;;;;;5109529;28;20407;-62
2023/06/01 11:59:10;;;;;;;16.13;7.35;;;13.50;99.90;;;;;;5107461;28;20484;-61
2023/06/01 12:01:45;;;;;;;10.32;4.80;;;13.50;99.90;;;;;;5109772;28;20134;-62
2023/06/01 12:04:14;;;;;;;7.95;3.08;;;13.60;99.90;;;;;;5103239;28;20040;-61
2023/06/01 12:06:40;;;;;;;6.32;3.22;;;13.60;99.90;;;;;;5070378;28;20079;-61
2023/06/01 12:09:06;;;;;;;8.50;3.33;;;13.60;99.90;;;;;;5120126;27;20098;-62
2023/06/01 12:11:32;;;;;;;8.90;3.17;;;13.60;99.90;;;;;;5088350;28;20504;-61
2023/06/01 12:13:59;;;;;;;10.63;3.28;;;13.60;99.90;;;;;;5121867;27;20051;-61
2023/06/01 12:16:27;;;;;;;9.60;3.00;;;13.50;99.90;;;;;;5121798;27;20572;-62
2023/06/01 12:18:54;;;;;;;6.88;3.20;;;13.50;99.90;;;;;;5114839;27;20074;-61
2023/06/01 12:21:20;;;;;;;8.93;3.20;;;13.50;99.90;;;;;;5092756;28;20052;-61
2023/06/01 12:23:52;;;;;;;7.63;2.50;;;13.50;99.90;;;;;;5107261;28;20484;-62
2023/06/01 12:26:18;;;;;;;9.75;3.72;;;13.40;99.90;;;;;;5108641;28;20040;-61
2023/06/01 12:28:54;;;;;;;7.85;2.88;;;13.40;99.90;;;;;;5109300;28;20051;-61
2023/06/01 12:31:21;;;;;;;10.65;3.35;;;13.30;99.90;;;;;;5109313;28;20502;-61
2023/06/01 12:33:50;;;;;;;13.32;4.25;;;13.20;99.90;;;;;;5108218;28;20040;-61
2023/06/01 12:36:34;;;;;;;10.48;3.20;;;13.20;99.90;;;;;;5113528;28;20050;-61
2023/06/01 12:39:03;;;;;;;9.10;3.38;;;13.20;99.90;;;;;;5112415;28;20542;-61
2023/06/01 12:41:29;;;;;;;8.27;3.00;;;13.20;99.90;;;;;;5111622;28;20393;-61
2023/06/01 12:43:55;;;;;;;9.75;3.00;;;13.20;99.90;;;;;;5113517;28;20035;-61
2023/06/01 12:46:22;;;;;;;10.82;4.15;;;13.20;99.90;;;;;;5111877;28;20043;-61
2023/06/01 12:48:48;;;;;;;11.02;3.65;;;13.20;99.90;;;;;;5111187;28;20050;-61
2023/06/01 12:51:15;;;;;;;9.48;3.17;;;13.20;99.90;;;;;;5113398;28;20148;-61
2023/06/01 12:53:42;;;;;;;12.57;4.75;;;13.10;99.90;;;;;;5113155;28;20058;-61